sensor_id;sensor_type;location;lat;lon;timestamp;pressure;altitude;pressure_sealevel;temperature;humidity
43480;BME280;29067;35.492;-97.520;2022-09-09T00:02:02;96638.11;;;31.14;27.33
43480;BME280;29067;35.492;-97.520;2022-09-09T00:04:34;96639.74;;;30.57;27.92
43480;BME280;29067;35.492;-97.520;2022-09-09T00:07:07;96641.80;;;30.48;28.07
43480;BME280;29067;35.492;-97.520;2022-09-09T00:09:44;96641.45;;;30.44;28.23
43480;BME280;29067;35.492;-97.520;2022-09-09T00:12:16;96640.06;;;31.54;28.17
43480;BME280;29067;35.492;-97.520;2022-09-09T00:14:52;96642.09;;;30.70;28.99
43480;BME280;29067;35.492;-97.520;2022-09-09T00:17:33;96642.18;;;31.82;27.68
43480;BME280;29067;35.492;-97.520;2022-09-09T00:20:11;96635.71;;;30.64;28.27
43480;BME280;29067;35.492;-97.520;2022-09-09T00:22:44;96631.03;;;30.69;27.97
43480;BME280;29067;35.492;-97.520;2022-09-09T00:25:18;96627.28;;;29.72;28.71
43480;BME280;29067;35.492;-97.520;2022-09-09T00:27:49;96625.90;;;31.62;27.54
43480;BME280;29067;35.492;-97.520;2022-09-09T00:30:20;96628.63;;;30.21;28.58
43480;BME280;29067;35.492;-97.520;2022-09-09T00:32:50;96629.44;;;30.13;28.50
43480;BME280;29067;35.492;-97.520;2022-09-09T00:35:25;96631.96;;;31.98;28.21
43480;BME280;29067;35.492;-97.520;2022-09-09T00:37:57;96635.52;;;31.67;28.10
43480;BME280;29067;35.492;-97.520;2022-09-09T00:40:32;96633.63;;;31.03;28.62
43480;BME280;29067;35.492;-97.520;2022-09-09T00:43:12;96636.35;;;30.86;28.72
43480;BME280;29067;35.492;-97.520;2022-09-09T00:46:08;96637.10;;;31.07;28.34
43480;BME280;29067;35.492;-97.520;2022-09-09T00:48:45;96631.00;;;30.92;28.83
43480;BME280;29067;35.492;-97.520;2022-09-09T00:51:24;96630.46;;;31.21;28.94
43480;BME280;29067;35.492;-97.520;2022-09-09T00:54:09;96629.53;;;31.78;28.31
43480;BME280;29067;35.492;-97.520;2022-09-09T00:56:47;96628.99;;;31.53;28.36
43480;BME280;29067;35.492;-97.520;2022-09-09T00:59:27;96628.91;;;31.08;28.21
43480;BME280;29067;35.492;-97.520;2022-09-09T01:01:56;96631.81;;;29.43;29.82
43480;BME280;29067;35.492;-97.520;2022-09-09T01:04:32;96628.96;;;30.69;29.21
43480;BME280;29067;35.492;-97.520;2022-09-09T01:07:06;96630.22;;;31.05;29.94
43480;BME280;29067;35.492;-97.520;2022-09-09T01:09:53;96631.20;;;29.70;29.58
43480;BME280;29067;35.492;-97.520;2022-09-09T01:12:33;96631.95;;;29.32;29.69
43480;BME280;29067;35.492;-97.520;2022-09-09T01:15:11;96631.93;;;30.19;30.03
43480;BME280;29067;35.492;-97.520;2022-09-09T01:17:48;96631.44;;;29.79;30.72
43480;BME280;29067;35.492;-97.520;2022-09-09T01:20:22;96631.41;;;31.27;29.39
43480;BME280;29067;35.492;-97.520;2022-09-09T01:23:04;96636.34;;;31.86;28.89
43480;BME280;29067;35.492;-97.520;2022-09-09T01:26:18;96636.02;;;30.83;28.90
43480;BME280;29067;35.492;-97.520;2022-09-09T01:28:48;96632.08;;;29.66;29.88
43480;BME280;29067;35.492;-97.520;2022-09-09T01:31:19;96633.09;;;29.62;30.36
43480;BME280;29067;35.492;-97.520;2022-09-09T01:33:48;96635.89;;;29.32;31.04
43480;BME280;29067;35.492;-97.520;2022-09-09T01:36:23;96635.49;;;30.50;30.15
43480;BME280;29067;35.492;-97.520;2022-09-09T01:38:53;96635.91;;;30.57;29.72
43480;BME280;29067;35.492;-97.520;2022-09-09T01:41:21;96636.46;;;31.03;29.78
43480;BME280;29067;35.492;-97.520;2022-09-09T01:43:50;96641.21;;;30.72;29.86
43480;BME280;29067;35.492;-97.520;2022-09-09T01:46:21;96641.41;;;30.52;29.91
43480;BME280;29067;35.492;-97.520;2022-09-09T01:48:50;96643.44;;;30.78;30.24
43480;BME280;29067;35.492;-97.520;2022-09-09T01:51:19;96645.57;;;31.09;30.22
43480;BME280;29067;35.492;-97.520;2022-09-09T01:53:47;96646.79;;;30.39;30.27
43480;BME280;29067;35.492;-97.520;2022-09-09T01:56:25;96648.88;;;29.98;30.59
43480;BME280;29067;35.492;-97.520;2022-09-09T01:59:08;96649.24;;;30.58;30.58
43480;BME280;29067;35.492;-97.520;2022-09-09T02:01:55;96650.49;;;30.53;30.42
43480;BME280;29067;35.492;-97.520;2022-09-09T02:04:36;96654.19;;;28.90;31.44
43480;BME280;29067;35.492;-97.520;2022-09-09T02:07:13;96651.30;;;28.75;32.00
43480;BME280;29067;35.492;-97.520;2022-09-09T02:09:47;96651.72;;;29.10;32.12
43480;BME280;29067;35.492;-97.520;2022-09-09T02:12:19;96653.98;;;29.90;31.52
43480;BME280;29067;35.492;-97.520;2022-09-09T02:14:55;96653.54;;;30.37;31.06
43480;BME280;29067;35.492;-97.520;2022-09-09T02:17:27;96657.46;;;30.37;31.54
43480;BME280;29067;35.492;-97.520;2022-09-09T02:20:00;96656.79;;;30.36;31.96
43480;BME280;29067;35.492;-97.520;2022-09-09T02:22:32;96660.92;;;30.40;31.38
43480;BME280;29067;35.492;-97.520;2022-09-09T02:25:02;96663.79;;;30.72;31.76
43480;BME280;29067;35.492;-97.520;2022-09-09T02:27:31;96669.02;;;30.05;32.00
43480;BME280;29067;35.492;-97.520;2022-09-09T02:30:01;96672.79;;;30.23;31.93
43480;BME280;29067;35.492;-97.520;2022-09-09T02:32:33;96673.95;;;30.26;32.01
43480;BME280;29067;35.492;-97.520;2022-09-09T02:35:05;96672.65;;;30.46;32.25
43480;BME280;29067;35.492;-97.520;2022-09-09T02:37:37;96672.10;;;30.43;32.73
43480;BME280;29067;35.492;-97.520;2022-09-09T02:40:07;96668.76;;;28.90;32.85
43480;BME280;29067;35.492;-97.520;2022-09-09T02:42:39;96668.25;;;29.61;32.97
43480;BME280;29067;35.492;-97.520;2022-09-09T02:45:09;96668.57;;;29.33;33.06
43480;BME280;29067;35.492;-97.520;2022-09-09T02:47:41;96671.53;;;29.92;33.27
43480;BME280;29067;35.492;-97.520;2022-09-09T02:50:13;96673.95;;;29.84;32.54
43480;BME280;29067;35.492;-97.520;2022-09-09T02:52:51;96674.34;;;29.63;32.69
43480;BME280;29067;35.492;-97.520;2022-09-09T02:55:27;96674.26;;;30.12;32.68
43480;BME280;29067;35.492;-97.520;2022-09-09T02:57:59;96674.24;;;29.78;33.12
43480;BME280;29067;35.492;-97.520;2022-09-09T03:00:29;96673.48;;;29.74;33.32
43480;BME280;29067;35.492;-97.520;2022-09-09T03:02:57;96676.83;;;28.25;34.82
43480;BME280;29067;35.492;-97.520;2022-09-09T03:05:25;96674.77;;;28.51;34.25
43480;BME280;29067;35.492;-97.520;2022-09-09T03:07:53;96673.67;;;29.75;33.48
43480;BME280;29067;35.492;-97.520;2022-09-09T03:10:20;96679.16;;;28.39;34.34
43480;BME280;29067;35.492;-97.520;2022-09-09T03:12:48;96675.37;;;28.98;34.03
43480;BME280;29067;35.492;-97.520;2022-09-09T03:15:17;96673.11;;;29.13;34.10
43480;BME280;29067;35.492;-97.520;2022-09-09T03:17:45;96676.73;;;28.75;34.92
43480;BME280;29067;35.492;-97.520;2022-09-09T03:20:12;96678.11;;;28.48;35.19
43480;BME280;29067;35.492;-97.520;2022-09-09T03:22:41;96674.89;;;29.16;34.56
43480;BME280;29067;35.492;-97.520;2022-09-09T03:25:09;96677.30;;;28.90;34.61
43480;BME280;29067;35.492;-97.520;2022-09-09T03:27:37;96678.45;;;28.95;35.26
43480;BME280;29067;35.492;-97.520;2022-09-09T03:30:06;96677.34;;;29.23;34.46
43480;BME280;29067;35.492;-97.520;2022-09-09T03:32:33;96682.86;;;29.16;34.90
43480;BME280;29067;35.492;-97.520;2022-09-09T03:35:01;96686.80;;;28.34;36.29
43480;BME280;29067;35.492;-97.520;2022-09-09T03:37:29;96686.66;;;28.54;35.52
43480;BME280;29067;35.492;-97.520;2022-09-09T03:39:57;96687.74;;;28.42;35.41
43480;BME280;29067;35.492;-97.520;2022-09-09T03:42:24;96687.69;;;28.64;35.28
43480;BME280;29067;35.492;-97.520;2022-09-09T03:44:52;96687.47;;;28.50;35.53
43480;BME280;29067;35.492;-97.520;2022-09-09T03:47:20;96687.63;;;28.60;35.52
43480;BME280;29067;35.492;-97.520;2022-09-09T03:49:48;96682.52;;;28.14;36.19
43480;BME280;29067;35.492;-97.520;2022-09-09T03:52:17;96681.67;;;25.16;38.57
43480;BME280;29067;35.492;-97.520;2022-09-09T03:54:45;96678.89;;;25.96;39.19
43480;BME280;29067;35.492;-97.520;2022-09-09T03:57:12;96677.94;;;26.18;38.74
43480;BME280;29067;35.492;-97.520;2022-09-09T03:59:40;96682.00;;;26.15;38.62
43480;BME280;29067;35.492;-97.520;2022-09-09T04:02:08;96682.39;;;26.68;38.15
43480;BME280;29067;35.492;-97.520;2022-09-09T04:04:35;96683.02;;;25.76;39.31
43480;BME280;29067;35.492;-97.520;2022-09-09T04:07:03;96679.90;;;26.23;39.06
43480;BME280;29067;35.492;-97.520;2022-09-09T04:09:31;96680.53;;;27.56;37.83
43480;BME280;29067;35.492;-97.520;2022-09-09T04:11:59;96680.44;;;26.74;38.10
43480;BME280;29067;35.492;-97.520;2022-09-09T04:14:27;96678.43;;;26.21;38.20
43480;BME280;29067;35.492;-97.520;2022-09-09T04:16:54;96682.19;;;26.46;38.41
43480;BME280;29067;35.492;-97.520;2022-09-09T04:19:23;96683.23;;;27.57;37.74
43480;BME280;29067;35.492;-97.520;2022-09-09T04:21:51;96685.72;;;26.92;37.91
43480;BME280;29067;35.492;-97.520;2022-09-09T04:24:20;96686.17;;;26.87;37.95
43480;BME280;29067;35.492;-97.520;2022-09-09T04:26:49;96687.91;;;27.05;37.53
43480;BME280;29067;35.492;-97.520;2022-09-09T04:29:17;96689.99;;;28.30;37.18
43480;BME280;29067;35.492;-97.520;2022-09-09T04:31:45;96697.42;;;26.87;37.92
43480;BME280;29067;35.492;-97.520;2022-09-09T04:34:12;96700.81;;;27.71;38.17
43480;BME280;29067;35.492;-97.520;2022-09-09T04:36:40;96724.86;;;22.93;42.74
43480;BME280;29067;35.492;-97.520;2022-09-09T04:39:07;96716.06;;;25.24;40.63
43480;BME280;29067;35.492;-97.520;2022-09-09T04:41:35;96713.46;;;23.99;40.79
43480;BME280;29067;35.492;-97.520;2022-09-09T04:44:03;96705.85;;;25.17;40.36
43480;BME280;29067;35.492;-97.520;2022-09-09T04:46:31;96703.39;;;24.75;40.70
43480;BME280;29067;35.492;-97.520;2022-09-09T04:48:58;96704.57;;;25.25;40.70
43480;BME280;29067;35.492;-97.520;2022-09-09T04:51:26;96693.41;;;24.06;41.36
43480;BME280;29067;35.492;-97.520;2022-09-09T04:53:53;96689.47;;;26.58;39.55
43480;BME280;29067;35.492;-97.520;2022-09-09T04:56:21;96687.12;;;26.67;38.81
43480;BME280;29067;35.492;-97.520;2022-09-09T04:58:48;96695.36;;;24.41;40.30
43480;BME280;29067;35.492;-97.520;2022-09-09T05:01:17;96685.21;;;26.04;39.01
43480;BME280;29067;35.492;-97.520;2022-09-09T05:03:46;96687.35;;;26.19;38.92
43480;BME280;29067;35.492;-97.520;2022-09-09T05:06:15;96686.26;;;25.83;38.63
43480;BME280;29067;35.492;-97.520;2022-09-09T05:08:44;96690.61;;;25.98;38.90
43480;BME280;29067;35.492;-97.520;2022-09-09T05:11:15;96692.58;;;26.66;38.10
43480;BME280;29067;35.492;-97.520;2022-09-09T05:13:43;96695.01;;;26.69;38.24
43480;BME280;29067;35.492;-97.520;2022-09-09T05:16:12;96696.30;;;27.03;37.92
43480;BME280;29067;35.492;-97.520;2022-09-09T05:18:41;96696.98;;;27.15;37.93
43480;BME280;29067;35.492;-97.520;2022-09-09T05:21:09;96702.34;;;27.31;37.62
43480;BME280;29067;35.492;-97.520;2022-09-09T05:23:37;96705.95;;;28.04;37.29
43480;BME280;29067;35.492;-97.520;2022-09-09T05:26:08;96706.21;;;27.72;37.01
43480;BME280;29067;35.492;-97.520;2022-09-09T05:28:38;96700.88;;;27.45;36.99
43480;BME280;29067;35.492;-97.520;2022-09-09T05:31:08;96697.05;;;26.89;37.98
43480;BME280;29067;35.492;-97.520;2022-09-09T05:33:36;96695.22;;;27.22;37.22
43480;BME280;29067;35.492;-97.520;2022-09-09T05:36:06;96695.34;;;25.76;38.59
43480;BME280;29067;35.492;-97.520;2022-09-09T05:38:35;96690.52;;;26.21;38.56
43480;BME280;29067;35.492;-97.520;2022-09-09T05:41:04;96689.53;;;26.87;38.21
43480;BME280;29067;35.492;-97.520;2022-09-09T05:43:32;96690.66;;;25.54;39.73
43480;BME280;29067;35.492;-97.520;2022-09-09T05:46:02;96688.78;;;26.74;38.38
43480;BME280;29067;35.492;-97.520;2022-09-09T05:48:31;96691.37;;;25.90;39.60
43480;BME280;29067;35.492;-97.520;2022-09-09T05:51:00;96691.61;;;26.32;39.44
43480;BME280;29067;35.492;-97.520;2022-09-09T05:53:28;96688.83;;;25.90;39.40
43480;BME280;29067;35.492;-97.520;2022-09-09T05:56:00;96686.25;;;26.79;39.12
43480;BME280;29067;35.492;-97.520;2022-09-09T05:58:28;96686.11;;;26.66;39.90
43480;BME280;29067;35.492;-97.520;2022-09-09T06:01:05;96685.91;;;25.57;39.94
43480;BME280;29067;35.492;-97.520;2022-09-09T06:03:34;96682.84;;;24.81;41.60
43480;BME280;29067;35.492;-97.520;2022-09-09T06:06:06;96676.61;;;25.02;41.18
43480;BME280;29067;35.492;-97.520;2022-09-09T06:08:36;96680.13;;;25.81;40.92
43480;BME280;29067;35.492;-97.520;2022-09-09T06:11:07;96689.21;;;24.67;41.72
43480;BME280;29067;35.492;-97.520;2022-09-09T06:13:35;96689.34;;;25.85;41.21
43480;BME280;29067;35.492;-97.520;2022-09-09T06:16:04;96687.55;;;24.90;41.31
43480;BME280;29067;35.492;-97.520;2022-09-09T06:18:32;96684.90;;;26.38;39.94
43480;BME280;29067;35.492;-97.520;2022-09-09T06:21:02;96679.45;;;26.54;38.89
43480;BME280;29067;35.492;-97.520;2022-09-09T06:23:31;96685.11;;;26.02;39.33
43480;BME280;29067;35.492;-97.520;2022-09-09T06:26:04;96681.02;;;25.37;39.90
43480;BME280;29067;35.492;-97.520;2022-09-09T06:28:34;96679.26;;;24.69;40.36
43480;BME280;29067;35.492;-97.520;2022-09-09T06:31:03;96678.24;;;24.92;40.07
43480;BME280;29067;35.492;-97.520;2022-09-09T06:33:33;96678.29;;;25.69;39.74
43480;BME280;29067;35.492;-97.520;2022-09-09T06:36:02;96675.58;;;26.53;38.89
43480;BME280;29067;35.492;-97.520;2022-09-09T06:38:30;96674.78;;;26.25;39.53
43480;BME280;29067;35.492;-97.520;2022-09-09T06:40:59;96672.75;;;26.59;39.00
43480;BME280;29067;35.492;-97.520;2022-09-09T06:43:27;96669.24;;;25.77;39.50
43480;BME280;29067;35.492;-97.520;2022-09-09T06:45:55;96668.25;;;25.54;39.68
43480;BME280;29067;35.492;-97.520;2022-09-09T06:48:24;96665.36;;;25.58;40.18
43480;BME280;29067;35.492;-97.520;2022-09-09T06:50:59;96663.73;;;24.58;41.19
43480;BME280;29067;35.492;-97.520;2022-09-09T06:53:28;96662.49;;;25.39;41.09
43480;BME280;29067;35.492;-97.520;2022-09-09T06:55:56;96659.82;;;24.07;41.78
43480;BME280;29067;35.492;-97.520;2022-09-09T06:58:23;96658.10;;;25.07;41.33
43480;BME280;29067;35.492;-97.520;2022-09-09T07:00:51;96657.75;;;25.50;40.27
43480;BME280;29067;35.492;-97.520;2022-09-09T07:03:18;96653.18;;;25.64;40.44
43480;BME280;29067;35.492;-97.520;2022-09-09T07:05:54;96652.14;;;24.92;41.77
43480;BME280;29067;35.492;-97.520;2022-09-09T07:08:22;96649.60;;;26.26;40.35
43480;BME280;29067;35.492;-97.520;2022-09-09T07:10:51;96650.17;;;26.26;40.59
43480;BME280;29067;35.492;-97.520;2022-09-09T07:13:19;96646.92;;;26.53;39.84
43480;BME280;29067;35.492;-97.520;2022-09-09T07:15:48;96648.47;;;26.63;39.44
43480;BME280;29067;35.492;-97.520;2022-09-09T07:18:16;96649.13;;;25.80;39.60
43480;BME280;29067;35.492;-97.520;2022-09-09T07:20:43;96642.93;;;24.91;41.18
43480;BME280;29067;35.492;-97.520;2022-09-09T07:23:19;96640.00;;;25.33;41.69
43480;BME280;29067;35.492;-97.520;2022-09-09T07:25:47;96643.18;;;23.85;42.35
43480;BME280;29067;35.492;-97.520;2022-09-09T07:28:15;96644.42;;;23.83;43.82
43480;BME280;29067;35.492;-97.520;2022-09-09T07:30:43;96638.27;;;24.44;42.59
43480;BME280;29067;35.492;-97.520;2022-09-09T07:33:12;96637.47;;;23.87;42.60
43480;BME280;29067;35.492;-97.520;2022-09-09T07:35:40;96635.67;;;23.79;42.39
43480;BME280;29067;35.492;-97.520;2022-09-09T07:38:07;96634.31;;;24.86;41.33
43480;BME280;29067;35.492;-97.520;2022-09-09T07:40:35;96636.20;;;24.41;41.68
43480;BME280;29067;35.492;-97.520;2022-09-09T07:43:03;96638.66;;;24.33;41.98
43480;BME280;29067;35.492;-97.520;2022-09-09T07:45:30;96640.76;;;24.11;42.11
43480;BME280;29067;35.492;-97.520;2022-09-09T07:47:58;96637.83;;;24.33;41.22
43480;BME280;29067;35.492;-97.520;2022-09-09T07:50:26;96637.72;;;23.99;41.50
43480;BME280;29067;35.492;-97.520;2022-09-09T07:52:54;96640.61;;;24.29;42.03
43480;BME280;29067;35.492;-97.520;2022-09-09T07:55:23;96636.40;;;24.49;40.82
43480;BME280;29067;35.492;-97.520;2022-09-09T07:57:51;96634.22;;;23.98;41.43
43480;BME280;29067;35.492;-97.520;2022-09-09T08:00:18;96628.08;;;23.91;41.36
43480;BME280;29067;35.492;-97.520;2022-09-09T08:02:47;96626.86;;;24.34;42.19
43480;BME280;29067;35.492;-97.520;2022-09-09T08:05:14;96629.14;;;24.00;42.19
43480;BME280;29067;35.492;-97.520;2022-09-09T08:07:43;96630.77;;;24.57;42.19
43480;BME280;29067;35.492;-97.520;2022-09-09T08:10:10;96633.41;;;23.91;41.81
43480;BME280;29067;35.492;-97.520;2022-09-09T08:12:38;96629.89;;;24.42;40.70
43480;BME280;29067;35.492;-97.520;2022-09-09T08:15:07;96632.12;;;23.17;42.20
43480;BME280;29067;35.492;-97.520;2022-09-09T08:17:34;96638.59;;;23.82;41.30
43480;BME280;29067;35.492;-97.520;2022-09-09T08:20:02;96637.86;;;24.10;41.24
43480;BME280;29067;35.492;-97.520;2022-09-09T08:22:30;96640.13;;;24.25;42.22
43480;BME280;29067;35.492;-97.520;2022-09-09T08:24:58;96640.61;;;23.49;41.99
43480;BME280;29067;35.492;-97.520;2022-09-09T08:27:26;96646.42;;;24.04;41.55
43480;BME280;29067;35.492;-97.520;2022-09-09T08:29:53;96646.64;;;22.24;43.23
43480;BME280;29067;35.492;-97.520;2022-09-09T08:32:21;96643.68;;;24.10;41.90
43480;BME280;29067;35.492;-97.520;2022-09-09T08:34:50;96642.26;;;23.91;42.01
43480;BME280;29067;35.492;-97.520;2022-09-09T08:37:18;96644.99;;;24.12;41.47
43480;BME280;29067;35.492;-97.520;2022-09-09T08:39:45;96655.21;;;22.37;43.72
43480;BME280;29067;35.492;-97.520;2022-09-09T08:42:24;96657.96;;;21.85;44.17
43480;BME280;29067;35.492;-97.520;2022-09-09T08:45:14;96654.86;;;22.58;43.31
43480;BME280;29067;35.492;-97.520;2022-09-09T08:47:53;96654.39;;;22.81;43.09
43480;BME280;29067;35.492;-97.520;2022-09-09T08:50:25;96658.29;;;22.60;43.13
43480;BME280;29067;35.492;-97.520;2022-09-09T08:52:57;96665.62;;;22.01;44.69
43480;BME280;29067;35.492;-97.520;2022-09-09T08:55:38;96662.46;;;21.59;45.32
43480;BME280;29067;35.492;-97.520;2022-09-09T08:58:13;96663.46;;;23.44;43.26
43480;BME280;29067;35.492;-97.520;2022-09-09T09:00:51;96663.31;;;21.85;44.11
43480;BME280;29067;35.492;-97.520;2022-09-09T09:03:32;96665.94;;;22.49;43.77
43480;BME280;29067;35.492;-97.520;2022-09-09T09:06:09;96659.49;;;23.34;42.51
43480;BME280;29067;35.492;-97.520;2022-09-09T09:08:46;96653.80;;;24.08;41.49
43480;BME280;29067;35.492;-97.520;2022-09-09T09:11:19;96660.68;;;22.09;43.84
43480;BME280;29067;35.492;-97.520;2022-09-09T09:13:52;96659.04;;;22.40;44.29
43480;BME280;29067;35.492;-97.520;2022-09-09T09:16:29;96661.62;;;21.36;44.17
43480;BME280;29067;35.492;-97.520;2022-09-09T09:19:00;96656.23;;;21.30;45.56
43480;BME280;29067;35.492;-97.520;2022-09-09T09:21:34;96657.08;;;22.71;43.54
43480;BME280;29067;35.492;-97.520;2022-09-09T09:24:11;96653.87;;;23.52;43.45
43480;BME280;29067;35.492;-97.520;2022-09-09T09:26:44;96654.04;;;22.45;44.64
43480;BME280;29067;35.492;-97.520;2022-09-09T09:29:14;96648.54;;;22.95;44.11
43480;BME280;29067;35.492;-97.520;2022-09-09T09:31:45;96649.67;;;22.31;44.47
43480;BME280;29067;35.492;-97.520;2022-09-09T09:34:15;96652.05;;;21.70;45.46
43480;BME280;29067;35.492;-97.520;2022-09-09T09:36:46;96653.64;;;20.77;46.79
43480;BME280;29067;35.492;-97.520;2022-09-09T09:39:24;96652.38;;;20.01;48.63
43480;BME280;29067;35.492;-97.520;2022-09-09T09:41:53;96648.82;;;20.06;49.25
43480;BME280;29067;35.492;-97.520;2022-09-09T09:44:25;96649.47;;;21.23;48.24
43480;BME280;29067;35.492;-97.520;2022-09-09T09:47:05;96646.08;;;22.42;47.06
43480;BME280;29067;35.492;-97.520;2022-09-09T09:49:33;96645.06;;;21.71;46.89
43480;BME280;29067;35.492;-97.520;2022-09-09T09:52:01;96646.56;;;21.15;47.86
43480;BME280;29067;35.492;-97.520;2022-09-09T09:54:32;96646.65;;;21.24;47.78
43480;BME280;29067;35.492;-97.520;2022-09-09T09:57:09;96650.97;;;22.16;45.89
43480;BME280;29067;35.492;-97.520;2022-09-09T09:59:38;96655.06;;;20.64;48.55
43480;BME280;29067;35.492;-97.520;2022-09-09T10:02:15;96655.36;;;21.61;47.37
43480;BME280;29067;35.492;-97.520;2022-09-09T10:04:43;96654.50;;;20.65;48.67
43480;BME280;29067;35.492;-97.520;2022-09-09T10:07:12;96649.35;;;20.22;49.27
43480;BME280;29067;35.492;-97.520;2022-09-09T10:09:41;96644.56;;;21.67;47.31
43480;BME280;29067;35.492;-97.520;2022-09-09T10:12:19;96643.59;;;20.93;48.74
43480;BME280;29067;35.492;-97.520;2022-09-09T10:14:57;96645.64;;;20.75;48.64
43480;BME280;29067;35.492;-97.520;2022-09-09T10:17:34;96645.65;;;21.35;46.60
43480;BME280;29067;35.492;-97.520;2022-09-09T10:20:20;96638.44;;;22.04;46.73
43480;BME280;29067;35.492;-97.520;2022-09-09T10:22:52;96643.28;;;20.82;48.16
43480;BME280;29067;35.492;-97.520;2022-09-09T10:25:32;96638.91;;;22.38;46.77
43480;BME280;29067;35.492;-97.520;2022-09-09T10:28:29;96638.35;;;22.81;44.93
43480;BME280;29067;35.492;-97.520;2022-09-09T10:31:10;96638.36;;;23.13;44.14
43480;BME280;29067;35.492;-97.520;2022-09-09T10:33:48;96641.69;;;22.27;45.02
43480;BME280;29067;35.492;-97.520;2022-09-09T10:36:21;96644.40;;;21.73;46.33
43480;BME280;29067;35.492;-97.520;2022-09-09T10:38:57;96646.15;;;21.03;48.02
43480;BME280;29067;35.492;-97.520;2022-09-09T10:41:40;96645.97;;;21.74;46.20
43480;BME280;29067;35.492;-97.520;2022-09-09T10:44:22;96646.73;;;21.44;46.38
43480;BME280;29067;35.492;-97.520;2022-09-09T10:47:15;96653.82;;;22.69;45.77
43480;BME280;29067;35.492;-97.520;2022-09-09T10:50:02;96653.69;;;21.90;45.70
43480;BME280;29067;35.492;-97.520;2022-09-09T10:52:40;96648.47;;;21.52;46.68
43480;BME280;29067;35.492;-97.520;2022-09-09T10:55:15;96647.15;;;22.28;46.61
43480;BME280;29067;35.492;-97.520;2022-09-09T10:57:46;96647.73;;;21.37;46.28
43480;BME280;29067;35.492;-97.520;2022-09-09T11:03:02;96657.60;;;20.42;47.16
43480;BME280;29067;35.492;-97.520;2022-09-09T11:05:34;96655.75;;;21.03;47.07
43480;BME280;29067;35.492;-97.520;2022-09-09T11:08:05;96656.61;;;21.53;46.64
43480;BME280;29067;35.492;-97.520;2022-09-09T11:10:41;96657.56;;;22.74;45.61
43480;BME280;29067;35.492;-97.520;2022-09-09T11:13:14;96656.02;;;21.97;46.34
43480;BME280;29067;35.492;-97.520;2022-09-09T11:15:46;96657.60;;;22.47;45.27
43480;BME280;29067;35.492;-97.520;2022-09-09T11:18:20;96656.89;;;22.10;46.18
43480;BME280;29067;35.492;-97.520;2022-09-09T11:20:50;96654.13;;;21.52;46.86
43480;BME280;29067;35.492;-97.520;2022-09-09T11:23:24;96654.83;;;21.45;47.09
43480;BME280;29067;35.492;-97.520;2022-09-09T11:25:57;96655.07;;;20.49;48.68
43480;BME280;29067;35.492;-97.520;2022-09-09T11:28:37;96658.80;;;21.32;48.44
43480;BME280;29067;35.492;-97.520;2022-09-09T11:31:22;96656.27;;;21.54;47.37
43480;BME280;29067;35.492;-97.520;2022-09-09T11:34:05;96656.16;;;21.14;47.54
43480;BME280;29067;35.492;-97.520;2022-09-09T11:36:49;96664.72;;;22.11;46.24
43480;BME280;29067;35.492;-97.520;2022-09-09T11:40:38;96670.84;;;22.33;45.95
43480;BME280;29067;35.492;-97.520;2022-09-09T11:43:11;96678.06;;;20.87;48.28
43480;BME280;29067;35.492;-97.520;2022-09-09T11:45:41;96684.08;;;21.13;47.85
43480;BME280;29067;35.492;-97.520;2022-09-09T11:48:24;96689.13;;;21.29;47.51
43480;BME280;29067;35.492;-97.520;2022-09-09T11:51:05;96689.71;;;21.78;46.63
43480;BME280;29067;35.492;-97.520;2022-09-09T11:53:34;96689.86;;;21.88;47.33
43480;BME280;29067;35.492;-97.520;2022-09-09T11:56:06;96692.61;;;21.90;47.27
43480;BME280;29067;35.492;-97.520;2022-09-09T11:58:38;96695.10;;;22.05;46.77
43480;BME280;29067;35.492;-97.520;2022-09-09T12:01:25;96694.20;;;21.06;48.97
43480;BME280;29067;35.492;-97.520;2022-09-09T12:04:06;96702.86;;;20.37;48.94
43480;BME280;29067;35.492;-97.520;2022-09-09T12:06:44;96699.61;;;21.96;47.27
43480;BME280;29067;35.492;-97.520;2022-09-09T12:09:20;96704.00;;;21.25;47.59
43480;BME280;29067;35.492;-97.520;2022-09-09T12:11:52;96708.29;;;22.26;46.58
43480;BME280;29067;35.492;-97.520;2022-09-09T12:14:21;96706.28;;;21.68;47.59
43480;BME280;29067;35.492;-97.520;2022-09-09T12:16:50;96706.81;;;22.05;46.40
43480;BME280;29067;35.492;-97.520;2022-09-09T12:19:20;96712.10;;;21.36;47.19
43480;BME280;29067;35.492;-97.520;2022-09-09T12:21:56;96714.89;;;21.43;47.76
43480;BME280;29067;35.492;-97.520;2022-09-09T12:24:33;96721.40;;;21.32;48.37
43480;BME280;29067;35.492;-97.520;2022-09-09T12:27:11;96728.14;;;21.43;48.16
43480;BME280;29067;35.492;-97.520;2022-09-09T12:29:49;96730.14;;;21.12;48.59
43480;BME280;29067;35.492;-97.520;2022-09-09T12:32:24;96735.15;;;21.47;48.86
43480;BME280;29067;35.492;-97.520;2022-09-09T12:34:54;96737.69;;;21.73;48.46
43480;BME280;29067;35.492;-97.520;2022-09-09T12:37:28;96739.14;;;21.86;47.43
43480;BME280;29067;35.492;-97.520;2022-09-09T12:40:00;96740.45;;;21.94;47.38
43480;BME280;29067;35.492;-97.520;2022-09-09T12:42:28;96742.24;;;22.78;46.28
43480;BME280;29067;35.492;-97.520;2022-09-09T12:44:58;96745.36;;;21.93;47.36
43480;BME280;29067;35.492;-97.520;2022-09-09T12:47:32;96748.47;;;21.53;48.08
43480;BME280;29067;35.492;-97.520;2022-09-09T12:50:04;96748.35;;;21.63;49.35
43480;BME280;29067;35.492;-97.520;2022-09-09T12:52:34;96753.44;;;20.03;51.45
43480;BME280;29067;35.492;-97.520;2022-09-09T12:55:06;96748.17;;;20.15;52.29
43480;BME280;29067;35.492;-97.520;2022-09-09T12:57:36;96747.17;;;21.50;50.29
43480;BME280;29067;35.492;-97.520;2022-09-09T13:00:11;96747.44;;;20.88;51.16
43480;BME280;29067;35.492;-97.520;2022-09-09T13:02:48;96755.06;;;19.84;54.25
43480;BME280;29067;35.492;-97.520;2022-09-09T13:05:19;96755.36;;;19.92;53.62
43480;BME280;29067;35.492;-97.520;2022-09-09T13:07:47;96755.70;;;20.98;52.79
43480;BME280;29067;35.492;-97.520;2022-09-09T13:10:21;96755.23;;;20.55;52.67